createdAt,value
2022-12-25T00:02:17.591Z,11.80
2022-12-25T00:04:45.463Z,11.07
2022-12-25T00:07:13.355Z,15.90
2022-12-25T00:09:41.229Z,13.03
2022-12-25T00:12:09.112Z,14.73
2022-12-25T00:14:38.294Z,20.20
2022-12-25T00:17:06.208Z,15.53
2022-12-25T00:19:34.465Z,15.37
2022-12-25T00:22:02.266Z,17.77
2022-12-25T00:24:30.076Z,23.80
2022-12-25T00:26:58.000Z,24.00
2022-12-25T00:29:25.817Z,20.67
2022-12-25T00:31:55.074Z,24.33
2022-12-25T00:34:23.152Z,27.23
2022-12-25T00:36:51.326Z,20.40
2022-12-25T00:39:19.413Z,26.43
2022-12-25T00:42:04.693Z,30.40
2022-12-25T00:44:33.036Z,28.47
2022-12-25T00:47:02.624Z,27.87
2022-12-25T00:49:30.569Z,30.03
2022-12-25T00:51:58.426Z,26.70
2022-12-25T00:54:26.467Z,30.60
2022-12-25T00:56:54.456Z,29.50
2022-12-25T00:59:22.379Z,28.13
2022-12-25T01:01:50.274Z,32.63
2022-12-25T01:04:19.624Z,32.37
2022-12-25T01:06:47.440Z,27.47
2022-12-25T01:09:32.813Z,27.93
2022-12-25T01:12:00.750Z,24.23
2022-12-25T01:14:28.635Z,33.20
2022-12-25T01:16:56.524Z,27.40
2022-12-25T01:19:25.854Z,23.67
2022-12-25T01:21:53.970Z,30.70
2022-12-25T01:24:21.768Z,27.83
2022-12-25T01:26:49.591Z,32.07
2022-12-25T01:29:17.543Z,27.90
2022-12-25T01:31:46.603Z,27.47
2022-12-25T01:34:14.475Z,25.13
2022-12-25T01:36:44.026Z,29.03
2022-12-25T01:39:11.911Z,26.67
2022-12-25T01:41:39.901Z,27.93
2022-12-25T01:44:09.407Z,31.83
2022-12-25T01:46:37.499Z,25.60
2022-12-25T01:49:09.195Z,25.00
2022-12-25T01:51:41.217Z,25.10
2022-12-25T01:54:15.942Z,22.10
2022-12-25T01:56:45.139Z,24.37
2022-12-25T01:59:17.399Z,21.47
2022-12-25T02:01:45.803Z,23.60
2022-12-25T02:04:21.262Z,25.90
2022-12-25T02:06:50.963Z,25.27
2022-12-25T02:09:20.238Z,27.10
2022-12-25T02:11:57.405Z,25.70
2022-12-25T02:14:25.698Z,25.73
2022-12-25T02:17:03.088Z,22.23
2022-12-25T02:19:50.973Z,21.37
2022-12-25T02:22:29.917Z,23.00
2022-12-25T02:25:14.389Z,22.40
2022-12-25T02:27:55.096Z,21.00
2022-12-25T02:30:23.193Z,25.07
2022-12-25T02:33:18.270Z,23.20
2022-12-25T02:35:50.765Z,22.10
2022-12-25T02:38:23.425Z,21.97
2022-12-25T02:40:54.223Z,21.10
2022-12-25T02:43:46.118Z,22.43
2022-12-25T02:46:34.888Z,20.73
2022-12-25T02:49:25.297Z,20.20
2022-12-25T02:52:15.719Z,21.00
2022-12-25T02:55:06.245Z,21.43
2022-12-25T02:58:06.844Z,20.70
2022-12-25T03:00:57.941Z,21.70
2022-12-25T03:03:47.715Z,17.13
2022-12-25T03:06:34.648Z,23.90
2022-12-25T03:09:19.949Z,19.83
2022-12-25T03:11:55.365Z,25.07
2022-12-25T03:14:41.086Z,21.87
2022-12-25T03:17:10.446Z,21.80
2022-12-25T03:19:55.695Z,20.33
2022-12-25T03:22:44.942Z,24.30
2022-12-25T03:25:30.778Z,22.67
2022-12-25T03:27:59.717Z,19.70
2022-12-25T03:30:52.233Z,23.50
2022-12-25T03:33:46.092Z,21.23
2022-12-25T03:36:22.277Z,17.53
2022-12-25T03:39:18.056Z,21.00
2022-12-25T03:42:08.449Z,22.13
2022-12-25T03:44:59.755Z,17.30
2022-12-25T03:47:49.530Z,16.43
2022-12-25T03:50:42.621Z,17.03
2022-12-25T03:53:30.707Z,20.40
2022-12-25T03:56:16.524Z,18.30
2022-12-25T03:59:09.153Z,17.07
2022-12-25T04:01:54.853Z,18.93
2022-12-25T04:04:40.139Z,15.87
2022-12-25T04:07:26.749Z,19.20
2022-12-25T04:10:12.131Z,19.07
2022-12-25T04:12:57.564Z,18.53
2022-12-25T04:15:42.881Z,20.70
2022-12-25T04:18:28.161Z,21.13
2022-12-25T04:21:13.488Z,20.20
2022-12-25T04:24:00.093Z,19.53
2022-12-25T04:26:45.331Z,19.67
2022-12-25T04:29:33.441Z,20.83
2022-12-25T04:32:18.813Z,20.30
2022-12-25T04:35:04.151Z,19.03
2022-12-25T04:37:32.143Z,21.07
2022-12-25T04:40:01.762Z,19.87
2022-12-25T04:42:29.899Z,20.73
2022-12-25T04:44:57.841Z,17.07
2022-12-25T04:47:25.721Z,21.43
2022-12-25T04:49:53.620Z,18.10
2022-12-25T04:52:21.453Z,20.53
2022-12-25T04:54:49.445Z,19.00
2022-12-25T04:57:18.635Z,21.70
2022-12-25T04:59:46.511Z,30.43
2022-12-25T05:02:14.518Z,21.30
2022-12-25T05:04:42.416Z,21.27
2022-12-25T05:07:10.216Z,21.10
2022-12-25T05:09:41.587Z,19.03
2022-12-25T05:12:10.002Z,21.50
2022-12-25T05:14:39.910Z,18.90
2022-12-25T05:17:08.929Z,21.10
2022-12-25T05:19:36.785Z,15.33
2022-12-25T05:22:04.659Z,18.50
2022-12-25T05:24:32.556Z,17.30
2022-12-25T05:27:00.350Z,19.90
2022-12-25T05:29:28.390Z,20.30
2022-12-25T05:31:57.639Z,17.17
2022-12-25T05:34:25.813Z,21.47
2022-12-25T05:36:53.631Z,20.30
2022-12-25T05:39:21.466Z,21.20
2022-12-25T05:41:49.300Z,18.40
2022-12-25T05:44:17.141Z,21.37
2022-12-25T05:46:45.099Z,20.67
2022-12-25T05:49:14.440Z,19.07
2022-12-25T05:51:42.523Z,16.10
2022-12-25T05:54:10.346Z,17.57
2022-12-25T05:56:38.473Z,18.97
2022-12-25T05:59:06.365Z,18.73
2022-12-25T06:01:35.425Z,16.60
2022-12-25T06:04:08.412Z,17.63
2022-12-25T06:06:42.051Z,16.37
2022-12-25T06:09:10.690Z,16.47
2022-12-25T06:11:38.474Z,14.70
2022-12-25T06:14:06.353Z,19.33
2022-12-25T06:16:37.916Z,14.57
2022-12-25T06:19:07.002Z,18.00
2022-12-25T06:21:34.905Z,17.97
2022-12-25T06:24:04.644Z,19.37
2022-12-25T06:26:32.732Z,20.07
2022-12-25T06:29:00.619Z,15.73
2022-12-25T06:31:28.813Z,16.60
2022-12-25T06:33:56.838Z,15.87
2022-12-25T06:36:27.020Z,14.83
2022-12-25T06:38:55.518Z,17.73
2022-12-25T06:41:26.616Z,18.27
2022-12-25T06:43:56.788Z,19.97
2022-12-25T06:46:26.434Z,20.90
2022-12-25T06:48:54.837Z,16.53
2022-12-25T06:51:24.901Z,16.33
2022-12-25T06:53:53.834Z,20.60
2022-12-25T06:56:24.624Z,20.40
2022-12-25T06:58:54.659Z,18.77
2022-12-25T07:01:25.073Z,18.07
2022-12-25T07:03:56.304Z,21.73
2022-12-25T07:06:24.480Z,19.70
2022-12-25T07:08:52.524Z,19.60
2022-12-25T07:11:20.371Z,19.57
2022-12-25T07:13:49.615Z,20.47
2022-12-25T07:16:18.171Z,22.40
2022-12-25T07:18:46.065Z,21.47
2022-12-25T07:21:16.857Z,20.07
2022-12-25T07:23:46.249Z,21.73
2022-12-25T07:26:15.235Z,17.70
2022-12-25T07:28:43.155Z,24.30
2022-12-25T07:31:15.301Z,21.33
2022-12-25T07:33:43.415Z,19.53
2022-12-25T07:36:12.794Z,21.30
2022-12-25T07:38:41.377Z,18.30
2022-12-25T07:41:09.972Z,22.40
2022-12-25T07:43:38.191Z,27.60
2022-12-25T07:46:06.822Z,24.60
2022-12-25T07:48:37.045Z,20.90
2022-12-25T07:51:07.127Z,21.73
2022-12-25T07:53:36.111Z,26.27
2022-12-25T07:56:05.697Z,31.53
2022-12-25T07:58:33.947Z,24.40
2022-12-25T08:01:05.296Z,28.00
2022-12-25T08:03:33.499Z,27.27
2022-12-25T08:06:04.876Z,22.50
2022-12-25T08:08:32.842Z,19.00
2022-12-25T08:11:00.961Z,16.03
2022-12-25T08:13:31.739Z,23.20
2022-12-25T08:16:00.392Z,24.50
2022-12-25T08:18:32.239Z,22.30
2022-12-25T08:21:05.257Z,24.93
2022-12-25T08:23:34.970Z,23.93
2022-12-25T08:26:05.434Z,33.67
2022-12-25T08:28:34.460Z,31.40
2022-12-25T08:31:08.007Z,18.77
2022-12-25T08:33:36.570Z,15.90
2022-12-25T08:36:07.992Z,15.30
2022-12-25T08:38:36.143Z,20.40
2022-12-25T08:41:04.489Z,15.03
2022-12-25T08:43:32.319Z,15.07
2022-12-25T08:46:00.277Z,33.70
2022-12-25T08:48:29.224Z,23.77
2022-12-25T08:50:57.564Z,20.57
2022-12-25T08:53:26.858Z,21.57
2022-12-25T08:55:58.622Z,18.53
2022-12-25T08:58:26.906Z,16.50
2022-12-25T09:00:55.381Z,21.03
2022-12-25T09:03:23.486Z,18.10
2022-12-25T09:05:51.421Z,17.63
2022-12-25T09:08:19.653Z,15.73
2022-12-25T09:10:49.012Z,16.20
2022-12-25T09:13:16.870Z,15.07
2022-12-25T09:15:44.691Z,13.07
2022-12-25T09:18:12.651Z,12.00
2022-12-25T09:20:40.512Z,14.47
2022-12-25T09:23:13.575Z,11.90
2022-12-25T09:25:42.148Z,13.30
2022-12-25T09:28:11.305Z,14.13
2022-12-25T09:30:39.262Z,12.60
2022-12-25T09:33:07.160Z,22.47
2022-12-25T09:35:34.953Z,38.27
2022-12-25T09:38:02.878Z,27.47
2022-12-25T09:40:33.103Z,15.27
2022-12-25T09:43:02.633Z,14.90
2022-12-25T09:45:36.775Z,14.50
2022-12-25T09:48:05.608Z,11.97
2022-12-25T09:50:43.024Z,13.13
2022-12-25T09:53:16.968Z,12.30
2022-12-25T09:55:49.845Z,13.63
2022-12-25T09:58:17.797Z,13.33
2022-12-25T10:00:53.973Z,14.93
2022-12-25T10:03:37.913Z,16.37
2022-12-25T10:06:20.017Z,14.10
2022-12-25T10:09:20.638Z,13.47
2022-12-25T10:12:01.550Z,13.83
2022-12-25T10:14:39.086Z,17.13
2022-12-25T10:17:33.698Z,13.83
2022-12-25T10:20:12.916Z,14.77
2022-12-25T10:22:44.623Z,13.70
2022-12-25T10:25:18.139Z,13.67
2022-12-25T10:27:46.525Z,14.33
2022-12-25T10:30:17.131Z,14.63
2022-12-25T10:32:47.589Z,12.30
2022-12-25T10:35:18.710Z,13.23
2022-12-25T10:37:53.692Z,14.53
2022-12-25T10:40:31.407Z,16.57
2022-12-25T10:43:09.162Z,16.07
2022-12-25T10:45:44.835Z,16.23
2022-12-25T10:48:24.277Z,15.70
2022-12-25T10:50:52.497Z,15.73
2022-12-25T10:53:23.681Z,15.63
2022-12-25T10:55:59.073Z,14.90
2022-12-25T10:58:27.728Z,17.63
2022-12-25T11:00:57.927Z,17.03
2022-12-25T11:03:31.044Z,17.80
2022-12-25T11:05:59.267Z,23.20
2022-12-25T11:08:29.785Z,17.40
2022-12-25T11:10:59.560Z,18.20
2022-12-25T11:13:30.235Z,16.43
2022-12-25T11:16:09.470Z,17.20
2022-12-25T11:18:47.643Z,15.33
2022-12-25T11:21:18.212Z,15.40
2022-12-25T11:23:47.945Z,17.17
2022-12-25T11:26:16.980Z,15.50
2022-12-25T11:28:46.567Z,17.30
2022-12-25T11:31:16.275Z,23.47
2022-12-25T11:33:52.735Z,18.80
2022-12-25T11:36:26.572Z,26.20
2022-12-25T11:38:54.489Z,33.13
2022-12-25T11:41:27.511Z,33.10
2022-12-25T11:43:59.326Z,22.03
2022-12-25T11:46:32.200Z,19.90
2022-12-25T11:49:06.515Z,17.90
2022-12-25T11:51:38.270Z,14.50
2022-12-25T11:54:18.201Z,14.83
2022-12-25T11:56:46.173Z,16.40
2022-12-25T11:59:21.517Z,16.33
2022-12-25T12:01:53.723Z,12.00
2022-12-25T12:04:30.814Z,13.53
2022-12-25T12:07:05.926Z,17.40
2022-12-25T12:09:41.778Z,16.80
2022-12-25T12:12:16.912Z,15.83
2022-12-25T12:14:52.713Z,19.03
2022-12-25T12:17:21.050Z,25.67
2022-12-25T12:19:50.502Z,19.87
2022-12-25T12:22:23.378Z,18.90
2022-12-25T12:24:57.038Z,19.50
2022-12-25T12:27:28.915Z,21.00
2022-12-25T12:29:59.386Z,23.33
2022-12-25T12:32:36.596Z,19.83
2022-12-25T12:35:16.661Z,21.83
2022-12-25T12:37:47.332Z,20.63
2022-12-25T12:40:33.365Z,16.10
2022-12-25T12:43:02.700Z,18.20
2022-12-25T12:45:33.717Z,16.30
2022-12-25T12:48:02.360Z,23.43
2022-12-25T12:50:37.849Z,19.80
2022-12-25T12:53:29.187Z,21.17
2022-12-25T12:55:57.515Z,17.20
2022-12-25T12:58:31.018Z,18.80
2022-12-25T13:01:09.970Z,14.50
2022-12-25T13:03:56.370Z,13.20
2022-12-25T13:06:33.596Z,19.80
2022-12-25T13:09:14.213Z,16.97
2022-12-25T13:11:44.607Z,16.10
2022-12-25T13:14:18.381Z,12.77
2022-12-25T13:16:48.701Z,12.17
2022-12-25T13:19:21.837Z,15.97
2022-12-25T13:21:55.701Z,13.13
2022-12-25T13:24:25.614Z,18.10
2022-12-25T13:26:54.069Z,14.53
2022-12-25T13:29:30.895Z,18.30
2022-12-25T13:32:00.398Z,15.93
2022-12-25T13:34:32.306Z,15.37
2022-12-25T13:37:08.975Z,14.30
2022-12-25T13:39:40.410Z,25.30
2022-12-25T13:42:09.831Z,31.90
2022-12-25T13:44:45.256Z,34.33
2022-12-25T13:47:22.022Z,17.13
2022-12-25T13:49:51.381Z,13.77
2022-12-25T13:52:22.414Z,12.60
2022-12-25T13:54:58.738Z,14.03
2022-12-25T13:57:34.507Z,21.17
2022-12-25T14:00:03.392Z,20.37
2022-12-25T14:02:36.135Z,14.93
2022-12-25T14:05:04.831Z,14.77
2022-12-25T14:07:34.771Z,12.83
2022-12-25T14:10:04.342Z,11.77
2022-12-25T14:12:33.824Z,11.90
2022-12-25T14:15:02.257Z,16.33
2022-12-25T14:17:30.303Z,13.87
2022-12-25T14:20:07.473Z,16.43
2022-12-25T14:22:38.531Z,20.23
2022-12-25T14:25:15.505Z,15.40
2022-12-25T14:27:50.621Z,15.23
2022-12-25T14:30:19.420Z,12.13
2022-12-25T14:32:50.852Z,16.60
2022-12-25T14:35:23.641Z,20.63
2022-12-25T14:37:59.948Z,14.83
2022-12-25T14:40:31.374Z,11.30
2022-12-25T14:43:01.111Z,14.03
2022-12-25T14:45:31.887Z,18.47
2022-12-25T14:48:04.206Z,14.00
2022-12-25T14:50:36.364Z,15.33
2022-12-25T14:53:07.237Z,16.83
2022-12-25T14:55:35.118Z,16.40
2022-12-25T14:58:05.509Z,15.07
2022-12-25T15:00:36.550Z,14.57
2022-12-25T15:03:07.670Z,49.67
2022-12-25T15:05:37.217Z,28.50
2022-12-25T15:08:22.903Z,17.43
2022-12-25T15:11:01.143Z,26.67
2022-12-25T15:13:31.838Z,20.20
2022-12-25T15:16:04.894Z,23.33
2022-12-25T15:18:38.781Z,27.43
2022-12-25T15:21:07.757Z,22.00
2022-12-25T15:23:37.013Z,21.60
2022-12-25T15:26:05.325Z,20.40
2022-12-25T15:28:33.662Z,20.93
2022-12-25T15:31:01.560Z,42.43
2022-12-25T15:33:29.428Z,45.03
2022-12-25T15:35:57.243Z,56.63
2022-12-25T15:38:25.091Z,29.23
2022-12-25T15:40:54.287Z,27.30
2022-12-25T15:43:39.849Z,22.10
2022-12-25T15:46:10.466Z,19.50
2022-12-25T15:48:38.412Z,22.97
2022-12-25T15:51:06.611Z,15.47
2022-12-25T15:53:34.440Z,24.83
2022-12-25T15:56:03.692Z,22.00
2022-12-25T15:58:31.624Z,30.03
2022-12-25T16:00:59.517Z,29.20
2022-12-25T16:03:27.415Z,18.90
2022-12-25T16:05:55.746Z,26.07
2022-12-25T16:08:23.679Z,18.03
2022-12-25T16:10:51.586Z,18.77
2022-12-25T16:13:20.742Z,19.10
2022-12-25T16:15:48.592Z,20.47
2022-12-25T16:18:16.557Z,24.57
2022-12-25T16:20:44.522Z,70.20
2022-12-25T16:23:12.417Z,38.33
2022-12-25T16:25:40.340Z,40.53
2022-12-25T16:28:10.230Z,27.97
2022-12-25T16:30:40.422Z,28.67
2022-12-25T16:33:09.022Z,30.30
2022-12-25T16:35:36.876Z,33.57
2022-12-25T16:38:05.026Z,29.77
2022-12-25T16:40:32.938Z,33.77
2022-12-25T16:43:01.219Z,24.50
2022-12-25T16:45:29.288Z,23.87
2022-12-25T16:47:58.690Z,26.50
2022-12-25T16:50:26.578Z,29.93
2022-12-25T16:52:54.550Z,26.90
2022-12-25T16:55:27.816Z,33.70
2022-12-25T16:57:58.171Z,25.47
2022-12-25T17:00:26.200Z,27.00
2022-12-25T17:02:54.649Z,19.43
2022-12-25T17:05:24.613Z,23.53
2022-12-25T17:07:52.580Z,34.17
2022-12-25T17:10:21.276Z,21.03
2022-12-25T17:12:49.235Z,20.90
2022-12-25T17:15:17.308Z,27.20
2022-12-25T17:17:45.228Z,17.43
2022-12-25T17:20:13.835Z,16.33
2022-12-25T17:22:43.122Z,21.43
2022-12-25T17:25:11.121Z,32.97
2022-12-25T17:27:38.982Z,27.17
2022-12-25T17:30:08.461Z,20.07
2022-12-25T17:32:36.406Z,23.50
2022-12-25T17:35:04.364Z,17.13
2022-12-25T17:37:32.381Z,20.50
2022-12-25T17:40:01.729Z,25.47
2022-12-25T17:42:29.895Z,20.07
2022-12-25T17:44:57.777Z,21.70
2022-12-25T17:47:26.153Z,25.73
2022-12-25T17:49:53.940Z,20.90
2022-12-25T17:52:21.835Z,18.90
2022-12-25T17:54:49.704Z,23.83
2022-12-25T17:57:18.887Z,20.73
2022-12-25T17:59:46.674Z,17.13
2022-12-25T18:02:14.811Z,17.03
2022-12-25T18:04:42.639Z,20.90
2022-12-25T18:07:10.455Z,23.87
2022-12-25T18:09:38.236Z,24.33
2022-12-25T18:12:06.911Z,22.97
2022-12-25T18:14:37.581Z,21.67
2022-12-25T18:17:06.925Z,22.57
2022-12-25T18:19:34.696Z,22.13
2022-12-25T18:22:02.739Z,23.60
2022-12-25T18:24:30.623Z,23.83
2022-12-25T18:26:58.541Z,24.93
2022-12-25T18:29:26.412Z,18.40
2022-12-25T18:31:55.969Z,14.17
2022-12-25T18:34:23.845Z,9.60
2022-12-25T18:36:51.679Z,7.60
2022-12-25T18:39:19.544Z,6.00
2022-12-25T18:42:04.923Z,5.07
2022-12-25T18:44:33.045Z,5.63
2022-12-25T18:47:02.326Z,5.70
2022-12-25T18:49:30.416Z,4.73
2022-12-25T18:52:48.080Z,4.07
2022-12-25T18:54:46.188Z,7.90
2022-12-25T18:57:14.295Z,6.30
2022-12-25T18:59:42.629Z,6.30
2022-12-25T19:02:13.228Z,8.60
2022-12-25T19:04:43.527Z,7.20
2022-12-25T19:07:11.718Z,8.80
2022-12-25T19:09:39.649Z,7.57
2022-12-25T19:12:07.985Z,11.13
2022-12-25T19:14:47.018Z,7.30
2022-12-25T19:17:17.541Z,10.03
2022-12-25T19:19:45.683Z,8.03
2022-12-25T19:22:13.818Z,5.00
2022-12-25T19:24:41.813Z,6.17
2022-12-25T19:27:10.350Z,10.03
2022-12-25T19:29:38.224Z,6.10
2022-12-25T19:32:06.797Z,4.90
2022-12-25T19:34:36.269Z,6.87
2022-12-25T19:37:04.452Z,9.70
2022-12-25T19:39:32.359Z,7.43
2022-12-25T19:42:00.257Z,6.03
2022-12-25T19:44:28.090Z,14.07
2022-12-25T19:46:56.615Z,7.07
2022-12-25T19:49:24.520Z,7.60
2022-12-25T19:51:53.803Z,5.83
2022-12-25T19:54:21.684Z,7.00
2022-12-25T19:56:50.339Z,8.43
2022-12-25T19:59:18.243Z,8.60
2022-12-25T20:01:46.339Z,10.13
2022-12-25T20:04:14.841Z,7.20
2022-12-25T20:06:43.495Z,6.53
2022-12-25T20:09:14.932Z,9.80
2022-12-25T20:11:43.393Z,6.53
2022-12-25T20:14:13.591Z,8.73
2022-12-25T20:16:41.827Z,6.33
2022-12-25T20:19:12.048Z,7.80
2022-12-25T20:21:40.105Z,7.80
2022-12-25T20:24:11.069Z,7.43
2022-12-25T20:26:40.914Z,9.87
2022-12-25T20:29:09.045Z,9.83
2022-12-25T20:31:37.225Z,7.53
2022-12-25T20:34:08.957Z,7.40
2022-12-25T20:36:38.240Z,10.50
2022-12-25T20:39:09.461Z,7.67
2022-12-25T20:41:38.058Z,8.20
2022-12-25T20:44:08.503Z,9.53
2022-12-25T20:46:36.688Z,7.40
2022-12-25T20:49:04.935Z,8.23
2022-12-25T20:51:32.883Z,5.87
2022-12-25T20:54:01.097Z,9.63
2022-12-25T20:56:30.345Z,7.80
2022-12-25T20:59:00.381Z,7.57
2022-12-25T21:01:31.818Z,13.47
2022-12-25T21:04:00.131Z,10.03
2022-12-25T21:06:28.095Z,8.77
2022-12-25T21:08:55.998Z,10.90
2022-12-25T21:11:23.903Z,9.40
2022-12-25T21:13:51.824Z,9.93
2022-12-25T21:16:22.243Z,10.17
2022-12-25T21:18:53.256Z,7.83
2022-12-25T21:21:22.060Z,6.77
2022-12-25T21:23:50.001Z,10.40
2022-12-25T21:26:20.453Z,7.40
2022-12-25T21:28:49.109Z,11.97
2022-12-25T21:31:17.907Z,10.87
2022-12-25T21:33:54.774Z,9.13
2022-12-25T21:36:27.666Z,7.17
2022-12-25T21:38:57.727Z,11.40
2022-12-25T21:41:27.190Z,12.20
2022-12-25T21:43:55.963Z,9.80
2022-12-25T21:46:24.244Z,9.67
2022-12-25T21:48:52.586Z,12.93
2022-12-25T21:51:40.019Z,6.90
2022-12-25T21:54:09.752Z,9.83
2022-12-25T21:56:44.048Z,8.93
2022-12-25T21:59:15.025Z,9.40
2022-12-25T22:01:43.127Z,8.53
2022-12-25T22:04:12.985Z,7.43
2022-12-25T22:06:58.637Z,8.17
2022-12-25T22:09:27.919Z,9.50
2022-12-25T22:12:13.507Z,13.20
2022-12-25T22:14:57.880Z,11.23
2022-12-25T22:17:44.712Z,8.47
2022-12-25T22:20:15.253Z,8.73
2022-12-25T22:22:43.590Z,11.97
2022-12-25T22:25:13.466Z,13.50
2022-12-25T22:27:42.714Z,13.13
2022-12-25T22:30:13.934Z,10.73
2022-12-25T22:32:45.288Z,11.53
2022-12-25T22:35:14.180Z,12.50
2022-12-25T22:37:43.032Z,12.43
2022-12-25T22:40:15.848Z,16.50
2022-12-25T22:42:43.760Z,10.17
2022-12-25T22:45:12.647Z,11.10
2022-12-25T22:47:40.890Z,8.30
2022-12-25T22:50:09.492Z,7.83
2022-12-25T22:52:37.514Z,10.03
2022-12-25T22:55:07.538Z,8.37
2022-12-25T22:57:37.263Z,9.43
2022-12-25T23:00:06.123Z,7.10
2022-12-25T23:02:35.164Z,8.67
2022-12-25T23:05:03.486Z,6.93
2022-12-25T23:07:31.370Z,7.60
2022-12-25T23:09:59.284Z,9.33
2022-12-25T23:12:45.002Z,11.27
2022-12-25T23:15:14.161Z,7.87
2022-12-25T23:17:59.410Z,8.33
2022-12-25T23:20:44.854Z,7.63
2022-12-25T23:23:33.800Z,10.10
2022-12-25T23:26:10.572Z,9.30
2022-12-25T23:28:57.101Z,9.17
2022-12-25T23:31:30.362Z,7.57
2022-12-25T23:33:59.049Z,7.80
2022-12-25T23:36:27.002Z,9.20
2022-12-25T23:38:54.990Z,11.10
2022-12-25T23:41:22.892Z,8.80
2022-12-25T23:43:51.150Z,8.83
2022-12-25T23:46:19.078Z,9.70
2022-12-25T23:48:48.766Z,8.40
2022-12-25T23:51:16.653Z,9.40
2022-12-25T23:53:44.565Z,11.60
2022-12-25T23:56:13.244Z,9.00
2022-12-25T23:58:41.421Z,9.70
